createdAt,value
2023-03-30T00:00:56.710Z,2.33
2023-03-30T00:03:23.709Z,2.57
2023-03-30T00:05:56.623Z,2.43
2023-03-30T00:08:30.287Z,2.17
2023-03-30T00:11:08.454Z,1.97
2023-03-30T00:13:39.140Z,2.40
2023-03-30T00:16:07.797Z,1.93
2023-03-30T00:18:36.852Z,2.17
2023-03-30T00:21:04.559Z,1.70
2023-03-30T00:23:35.295Z,1.77
2023-03-30T00:26:02.109Z,2.27
2023-03-30T00:28:31.040Z,1.97
2023-03-30T00:31:00.666Z,1.77
2023-03-30T00:33:41.499Z,1.53
2023-03-30T00:36:12.626Z,1.80
2023-03-30T00:38:40.322Z,1.80
2023-03-30T00:41:07.395Z,2.10
2023-03-30T00:43:35.480Z,2.00
2023-03-30T00:46:02.459Z,2.00
2023-03-30T00:48:34.590Z,1.77
2023-03-30T00:51:07.515Z,1.77
2023-03-30T00:53:47.211Z,2.03
2023-03-30T00:56:16.641Z,1.73
2023-03-30T00:58:45.284Z,1.77
2023-03-30T01:01:15.114Z,1.90
2023-03-30T01:03:45.999Z,2.17
2023-03-30T01:06:14.395Z,1.90
2023-03-30T01:08:42.526Z,1.40
2023-03-30T01:11:09.834Z,1.47
2023-03-30T01:13:48.557Z,1.60
2023-03-30T01:16:31.230Z,1.90
2023-03-30T01:19:16.138Z,1.50
2023-03-30T01:22:07.927Z,1.60
2023-03-30T01:25:08.382Z,1.60
2023-03-30T01:28:09.793Z,1.67
2023-03-30T01:30:46.194Z,1.43
2023-03-30T01:33:50.850Z,1.60
2023-03-30T01:36:31.678Z,1.63
2023-03-30T01:39:29.339Z,1.67
2023-03-30T01:42:02.692Z,1.53
2023-03-30T01:44:48.641Z,1.33
2023-03-30T01:47:29.964Z,1.53
2023-03-30T01:50:11.784Z,1.20
2023-03-30T01:52:42.548Z,1.20
2023-03-30T01:55:33.416Z,1.13
2023-03-30T01:58:08.288Z,1.03
2023-03-30T02:00:38.332Z,1.30
2023-03-30T02:03:19.164Z,1.17
2023-03-30T02:05:49.236Z,1.00
2023-03-30T02:08:20.060Z,0.90
2023-03-30T02:10:49.106Z,0.90
2023-03-30T02:13:26.699Z,0.87
2023-03-30T02:16:07.201Z,1.27
2023-03-30T02:18:34.119Z,1.60
2023-03-30T02:21:02.197Z,1.10
2023-03-30T02:23:35.646Z,0.93
2023-03-30T02:26:02.657Z,1.20
2023-03-30T02:28:29.388Z,1.30
2023-03-30T02:30:56.811Z,1.30
2023-03-30T02:33:33.720Z,1.10
2023-03-30T02:36:16.054Z,1.33
2023-03-30T02:39:05.177Z,1.17
2023-03-30T02:41:31.941Z,1.23
2023-03-30T02:44:01.683Z,1.37
2023-03-30T02:46:43.416Z,1.10
2023-03-30T02:49:29.116Z,1.77
2023-03-30T02:52:10.094Z,1.20
2023-03-30T02:54:55.115Z,1.33
2023-03-30T02:57:45.818Z,1.10
2023-03-30T03:00:18.715Z,1.00
2023-03-30T03:02:52.753Z,0.77
2023-03-30T03:05:20.746Z,1.10
2023-03-30T03:07:48.258Z,1.10
2023-03-30T03:10:15.050Z,0.97
2023-03-30T03:12:44.545Z,1.17
2023-03-30T03:15:12.555Z,1.53
2023-03-30T03:17:39.334Z,0.90
2023-03-30T03:20:10.392Z,1.27
2023-03-30T03:22:37.221Z,1.30
2023-03-30T03:25:05.107Z,0.97
2023-03-30T03:27:31.975Z,1.10
2023-03-30T03:29:58.909Z,0.97
2023-03-30T03:32:25.688Z,0.93
2023-03-30T03:34:52.432Z,1.43
2023-03-30T03:37:19.391Z,1.03
2023-03-30T03:39:46.666Z,1.10
2023-03-30T03:42:13.562Z,1.00
2023-03-30T03:44:40.640Z,1.30
2023-03-30T03:47:07.564Z,1.03
2023-03-30T03:49:34.276Z,1.00
2023-03-30T03:52:00.989Z,0.90
2023-03-30T03:54:27.709Z,1.27
2023-03-30T03:56:54.478Z,1.20
2023-03-30T03:59:21.248Z,1.13
2023-03-30T04:01:48.140Z,1.67
2023-03-30T04:04:14.918Z,0.90
2023-03-30T04:06:41.666Z,1.37
2023-03-30T04:09:08.378Z,1.20
2023-03-30T04:11:35.169Z,1.47
2023-03-30T04:14:01.901Z,1.30
2023-03-30T04:16:29.001Z,1.37
2023-03-30T04:18:57.611Z,1.30
2023-03-30T04:21:27.898Z,1.70
2023-03-30T04:23:54.631Z,1.73
2023-03-30T04:26:21.420Z,1.67
2023-03-30T04:28:48.134Z,1.43
2023-03-30T04:31:14.943Z,1.70
2023-03-30T04:33:55.019Z,1.93
2023-03-30T04:36:22.094Z,1.67
2023-03-30T04:39:11.948Z,2.00
2023-03-30T04:41:41.806Z,1.70
2023-03-30T04:44:10.406Z,2.13
2023-03-30T04:46:37.544Z,1.70
2023-03-30T04:49:07.228Z,1.50
2023-03-30T04:51:33.980Z,1.87
2023-03-30T04:54:02.302Z,2.10
2023-03-30T04:56:31.880Z,1.87
2023-03-30T04:58:58.603Z,2.00
2023-03-30T05:01:25.448Z,1.90
2023-03-30T05:03:55.247Z,1.90
2023-03-30T05:06:22.055Z,1.60
2023-03-30T05:08:48.956Z,1.70
2023-03-30T05:11:18.546Z,1.80
2023-03-30T05:13:45.537Z,1.53
2023-03-30T05:16:12.544Z,1.77
2023-03-30T05:18:39.332Z,1.83
2023-03-30T05:21:06.744Z,2.10
2023-03-30T05:23:33.563Z,1.83
2023-03-30T05:26:00.444Z,1.53
2023-03-30T05:28:27.222Z,1.50
2023-03-30T05:30:57.001Z,1.80
2023-03-30T05:33:24.475Z,1.57
2023-03-30T05:35:51.976Z,1.50
2023-03-30T05:38:31.474Z,1.80
2023-03-30T05:40:58.291Z,1.80
2023-03-30T05:43:24.998Z,1.90
2023-03-30T05:45:51.851Z,1.57
2023-03-30T05:48:18.854Z,1.80
2023-03-30T05:50:48.268Z,2.00
2023-03-30T05:53:15.708Z,1.93
2023-03-30T05:55:49.599Z,1.90
2023-03-30T05:58:16.961Z,1.90
2023-03-30T06:00:44.804Z,1.90
2023-03-30T06:03:12.676Z,2.07
2023-03-30T06:05:41.830Z,2.57
2023-03-30T06:08:09.954Z,2.50
2023-03-30T06:10:37.484Z,2.40
2023-03-30T06:13:04.884Z,2.20
2023-03-30T06:15:31.693Z,2.07
2023-03-30T06:17:59.352Z,1.70
2023-03-30T06:20:26.208Z,2.70
2023-03-30T06:22:53.040Z,2.13
2023-03-30T06:25:24.634Z,2.23
2023-03-30T06:27:52.135Z,2.00
2023-03-30T06:30:21.135Z,1.60
2023-03-30T06:32:47.918Z,1.90
2023-03-30T06:35:15.740Z,1.70
2023-03-30T06:37:42.760Z,2.00
2023-03-30T06:40:13.507Z,2.00
2023-03-30T06:42:41.589Z,2.30
2023-03-30T06:45:09.219Z,1.77
2023-03-30T06:47:37.162Z,1.43
2023-03-30T06:50:05.015Z,2.47
2023-03-30T06:52:35.522Z,2.10
2023-03-30T06:55:03.308Z,1.97
2023-03-30T06:57:30.700Z,2.43
2023-03-30T06:59:57.736Z,1.90
2023-03-30T07:02:25.729Z,2.93
2023-03-30T07:04:52.640Z,1.90
2023-03-30T07:07:19.853Z,2.37
2023-03-30T07:09:49.466Z,1.87
2023-03-30T07:12:16.477Z,1.67
2023-03-30T07:14:43.166Z,1.77
2023-03-30T07:17:10.349Z,1.70
2023-03-30T07:19:37.266Z,1.50
2023-03-30T07:22:04.167Z,2.07
2023-03-30T07:24:31.544Z,2.27
2023-03-30T07:26:58.417Z,2.10
2023-03-30T07:29:27.073Z,2.23
2023-03-30T07:31:59.001Z,2.27
2023-03-30T07:34:25.847Z,2.47
2023-03-30T07:36:54.459Z,2.20
2023-03-30T07:39:21.770Z,1.80
2023-03-30T07:41:48.491Z,2.20
2023-03-30T07:44:15.517Z,1.90
2023-03-30T07:46:42.383Z,2.60
2023-03-30T07:49:09.229Z,3.10
2023-03-30T07:51:36.122Z,2.03
2023-03-30T07:54:03.914Z,1.80
2023-03-30T07:56:34.968Z,2.30
2023-03-30T07:59:04.615Z,2.77
2023-03-30T08:01:35.272Z,2.30
2023-03-30T08:04:02.955Z,2.33
2023-03-30T08:06:30.370Z,2.10
2023-03-30T08:08:57.224Z,1.97
2023-03-30T08:11:24.020Z,2.60
2023-03-30T08:13:50.809Z,2.80
2023-03-30T08:16:17.587Z,2.60
2023-03-30T08:18:44.361Z,2.23
2023-03-30T08:21:11.523Z,2.57
2023-03-30T08:23:38.360Z,2.70
2023-03-30T08:26:05.305Z,2.03
2023-03-30T08:28:32.210Z,1.87
2023-03-30T08:31:07.135Z,2.93
2023-03-30T08:33:35.077Z,2.20
2023-03-30T08:36:02.051Z,1.73
2023-03-30T08:38:29.352Z,2.50
2023-03-30T08:40:56.360Z,2.33
2023-03-30T08:43:52.850Z,2.70
2023-03-30T08:46:24.779Z,2.43
2023-03-30T08:48:53.671Z,1.83
2023-03-30T08:51:23.522Z,2.60
2023-03-30T08:54:01.465Z,2.40
2023-03-30T08:56:33.220Z,2.40
2023-03-30T08:59:27.137Z,1.93
2023-03-30T09:02:03.258Z,2.30
2023-03-30T09:04:48.984Z,1.77
2023-03-30T09:07:21.896Z,1.77
2023-03-30T09:09:51.826Z,2.20
2023-03-30T09:12:44.485Z,2.10
2023-03-30T09:15:25.639Z,2.20
2023-03-30T09:17:56.134Z,3.00
2023-03-30T09:20:27.044Z,2.47
2023-03-30T09:22:55.853Z,2.63
2023-03-30T09:25:47.566Z,3.07
2023-03-30T09:28:41.399Z,2.20
2023-03-30T09:31:22.380Z,2.63
2023-03-30T09:34:08.472Z,2.97
2023-03-30T09:37:00.192Z,2.90
2023-03-30T09:39:30.445Z,2.70
2023-03-30T09:42:34.238Z,3.00
2023-03-30T09:45:27.506Z,3.73
2023-03-30T09:47:54.670Z,2.73
2023-03-30T09:50:28.527Z,3.47
2023-03-30T09:53:04.977Z,3.73
2023-03-30T09:55:34.875Z,3.63
2023-03-30T09:58:26.323Z,2.83
2023-03-30T10:01:13.993Z,2.53
2023-03-30T10:03:42.641Z,2.60
2023-03-30T10:06:13.278Z,3.53
2023-03-30T10:08:50.659Z,2.67
2023-03-30T10:11:30.448Z,3.13
2023-03-30T10:13:58.734Z,3.93
2023-03-30T10:16:28.723Z,2.63
2023-03-30T10:19:04.041Z,2.97
2023-03-30T10:21:36.634Z,3.50
2023-03-30T10:24:14.625Z,2.67
2023-03-30T10:26:46.494Z,2.90
2023-03-30T10:29:16.671Z,2.17
2023-03-30T10:31:46.269Z,2.67
2023-03-30T10:34:20.843Z,3.27
2023-03-30T10:36:53.256Z,3.30
2023-03-30T10:39:30.255Z,2.53
2023-03-30T10:42:00.172Z,2.40
2023-03-30T10:44:44.981Z,3.87
2023-03-30T10:47:14.587Z,2.57
2023-03-30T10:49:44.186Z,2.30
2023-03-30T10:52:52.287Z,2.67
2023-03-30T10:55:48.397Z,2.80
2023-03-30T10:58:52.930Z,2.80
2023-03-30T11:01:39.526Z,2.60
2023-03-30T11:04:23.326Z,2.33
2023-03-30T11:06:54.533Z,2.77
2023-03-30T11:09:29.467Z,2.67
2023-03-30T11:12:11.091Z,2.80
2023-03-30T11:14:40.580Z,2.40
2023-03-30T11:17:19.741Z,2.83
2023-03-30T11:19:51.977Z,2.57
2023-03-30T11:22:31.367Z,2.97
2023-03-30T11:25:00.166Z,2.23
2023-03-30T11:27:43.435Z,2.43
2023-03-30T11:30:17.173Z,2.23
2023-03-30T11:32:56.499Z,1.80
2023-03-30T11:35:41.329Z,2.10
2023-03-30T11:38:35.388Z,2.00
2023-03-30T11:41:11.994Z,2.17
2023-03-30T11:43:38.948Z,2.40
2023-03-30T11:46:20.477Z,2.63
2023-03-30T11:49:03.860Z,2.57
2023-03-30T11:51:52.984Z,2.37
2023-03-30T11:54:59.784Z,2.43
2023-03-30T11:57:41.126Z,2.17
2023-03-30T12:00:23.377Z,2.10
2023-03-30T12:03:22.649Z,2.17
2023-03-30T12:06:27.056Z,2.13
2023-03-30T12:09:12.698Z,2.00
2023-03-30T12:12:03.763Z,2.10
2023-03-30T12:14:47.260Z,2.23
2023-03-30T12:17:37.556Z,2.27
2023-03-30T12:20:07.832Z,1.90
2023-03-30T12:22:52.566Z,2.03
2023-03-30T12:25:39.162Z,1.60
2023-03-30T12:28:15.026Z,2.57
2023-03-30T12:30:57.456Z,2.30
2023-03-30T12:33:46.223Z,1.67
2023-03-30T12:36:31.176Z,1.60
2023-03-30T12:41:51.232Z,2.20
2023-03-30T12:44:25.348Z,1.97
2023-03-30T12:47:27.910Z,2.17
2023-03-30T12:50:18.795Z,2.13
2023-03-30T12:52:54.646Z,2.07
2023-03-30T12:55:29.468Z,1.83
2023-03-30T12:58:17.368Z,2.27
2023-03-30T13:00:50.274Z,2.50
2023-03-30T13:03:50.012Z,1.87
2023-03-30T13:06:48.648Z,2.30
2023-03-30T13:09:15.481Z,2.20
2023-03-30T13:11:49.280Z,2.33
2023-03-30T13:14:31.204Z,2.03
2023-03-30T13:17:01.119Z,2.00
2023-03-30T13:19:42.087Z,2.10
2023-03-30T13:22:11.640Z,1.87
2023-03-30T13:25:20.669Z,2.20
2023-03-30T13:27:56.602Z,2.00
2023-03-30T13:30:29.318Z,1.83
2023-03-30T13:32:58.966Z,2.10
2023-03-30T13:35:40.999Z,2.00
2023-03-30T13:38:16.958Z,1.63
2023-03-30T13:41:04.695Z,1.80
2023-03-30T13:43:39.360Z,1.80
2023-03-30T13:46:27.410Z,2.30
2023-03-30T13:49:15.728Z,2.00
2023-03-30T13:51:43.107Z,2.50
2023-03-30T13:54:21.909Z,2.47
2023-03-30T13:57:11.155Z,2.53
2023-03-30T13:59:47.077Z,2.37
2023-03-30T14:02:19.114Z,2.70
2023-03-30T14:04:45.961Z,2.40
2023-03-30T14:07:19.140Z,2.30
2023-03-30T14:10:06.500Z,1.70
2023-03-30T14:12:35.598Z,1.93
2023-03-30T14:15:26.025Z,1.70
2023-03-30T14:17:56.936Z,1.93
2023-03-30T14:20:29.571Z,1.73
2023-03-30T14:22:58.581Z,1.93
2023-03-30T14:25:31.757Z,2.07
2023-03-30T14:28:07.639Z,1.70
2023-03-30T14:30:37.207Z,2.13
2023-03-30T14:33:13.331Z,2.20
2023-03-30T14:35:59.320Z,1.80
2023-03-30T14:38:30.278Z,1.77
2023-03-30T14:41:00.434Z,1.90
2023-03-30T14:43:31.155Z,1.97
2023-03-30T14:46:02.857Z,1.70
2023-03-30T14:48:35.353Z,1.87
2023-03-30T14:51:02.982Z,2.10
2023-03-30T14:53:31.155Z,2.37
2023-03-30T14:56:00.696Z,1.77
2023-03-30T14:58:31.200Z,2.03
2023-03-30T15:01:00.327Z,1.83
2023-03-30T15:03:34.333Z,1.90
2023-03-30T15:06:02.747Z,1.77
2023-03-30T15:08:36.594Z,1.60
2023-03-30T15:11:08.614Z,2.00
2023-03-30T15:13:54.792Z,2.07
2023-03-30T15:16:28.985Z,1.40
2023-03-30T15:19:28.088Z,1.33
2023-03-30T15:21:58.632Z,1.20
2023-03-30T15:24:29.410Z,1.30
2023-03-30T15:27:01.063Z,1.70
2023-03-30T15:29:30.392Z,1.50
2023-03-30T15:32:21.697Z,1.23
2023-03-30T15:35:16.551Z,1.43
2023-03-30T15:37:54.986Z,1.70
2023-03-30T15:40:36.093Z,1.40
2023-03-30T15:43:18.209Z,1.40
2023-03-30T15:45:48.947Z,1.63
2023-03-30T15:48:21.965Z,1.80
2023-03-30T15:50:58.022Z,2.73
2023-03-30T15:53:48.506Z,1.90
2023-03-30T15:56:34.864Z,2.10
2023-03-30T15:59:01.891Z,2.27
2023-03-30T16:02:02.923Z,2.80
2023-03-30T16:04:32.101Z,2.33
2023-03-30T16:06:58.848Z,2.53
2023-03-30T16:09:25.697Z,2.60
2023-03-30T16:11:52.654Z,2.80
2023-03-30T16:14:20.668Z,2.20
2023-03-30T16:16:48.216Z,2.40
2023-03-30T16:19:18.188Z,2.50
2023-03-30T16:21:45.651Z,2.97
2023-03-30T16:24:12.836Z,2.27
2023-03-30T16:26:42.710Z,1.67
2023-03-30T16:29:21.559Z,2.20
2023-03-30T16:31:49.588Z,1.90
2023-03-30T16:34:16.751Z,2.20
2023-03-30T16:36:44.103Z,1.63
2023-03-30T16:39:27.340Z,2.00
2023-03-30T16:41:55.023Z,1.90
2023-03-30T16:44:23.871Z,2.00
2023-03-30T16:46:51.616Z,1.73
2023-03-30T16:49:24.212Z,1.63
2023-03-30T16:51:53.778Z,1.87
2023-03-30T16:54:31.161Z,1.70
2023-03-30T16:56:59.002Z,1.87
2023-03-30T16:59:29.038Z,1.93
2023-03-30T17:01:56.270Z,1.53
2023-03-30T17:04:23.304Z,1.40
2023-03-30T17:06:50.238Z,1.50
2023-03-30T17:09:19.527Z,1.70
2023-03-30T17:11:47.601Z,1.60
2023-03-30T17:14:14.874Z,1.83
2023-03-30T17:16:42.321Z,1.67
2023-03-30T17:19:13.857Z,1.30
2023-03-30T17:21:42.956Z,1.60
2023-03-30T17:24:11.312Z,1.13
2023-03-30T17:26:41.649Z,1.57
2023-03-30T17:29:09.785Z,1.37
2023-03-30T17:31:45.856Z,1.60
2023-03-30T17:34:13.297Z,1.13
2023-03-30T17:36:40.111Z,1.50
2023-03-30T17:39:07.283Z,1.50
2023-03-30T17:41:34.288Z,1.47
2023-03-30T17:44:01.155Z,1.43
2023-03-30T17:46:28.274Z,1.33
2023-03-30T17:48:55.269Z,1.70
2023-03-30T17:51:22.133Z,1.20
2023-03-30T17:53:48.959Z,1.67
2023-03-30T17:56:15.849Z,1.10
2023-03-30T17:58:42.823Z,1.47
2023-03-30T18:01:09.971Z,1.40
2023-03-30T18:03:39.145Z,1.30
2023-03-30T18:06:06.771Z,1.43
2023-03-30T18:08:33.696Z,1.67
2023-03-30T18:11:01.675Z,1.20
2023-03-30T18:13:29.498Z,1.07
2023-03-30T18:15:58.746Z,1.67
2023-03-30T18:18:29.321Z,1.37
2023-03-30T18:21:04.591Z,1.57
2023-03-30T18:23:34.741Z,1.57
2023-03-30T18:26:03.809Z,1.87
2023-03-30T18:28:31.538Z,1.27
2023-03-30T18:31:02.077Z,1.80
2023-03-30T18:33:28.892Z,1.83
2023-03-30T18:36:08.058Z,1.20
2023-03-30T18:38:35.267Z,1.40
2023-03-30T18:41:04.821Z,1.27
2023-03-30T18:43:32.048Z,1.63
2023-03-30T18:46:01.980Z,1.43
2023-03-30T18:48:29.587Z,1.23
2023-03-30T18:50:56.807Z,1.90
2023-03-30T18:53:26.115Z,1.50
2023-03-30T18:56:01.694Z,2.20
2023-03-30T18:58:33.430Z,1.40
2023-03-30T19:01:01.455Z,1.70
2023-03-30T19:03:30.001Z,1.67
2023-03-30T19:05:56.972Z,1.87
2023-03-30T19:08:26.106Z,1.43
2023-03-30T19:10:55.247Z,2.00
2023-03-30T19:13:23.377Z,1.33
2023-03-30T19:15:51.230Z,1.33
2023-03-30T19:18:18.708Z,1.87
2023-03-30T19:20:45.968Z,1.60
2023-03-30T19:23:15.618Z,1.57
2023-03-30T19:25:44.118Z,1.23
2023-03-30T19:28:12.504Z,1.60
2023-03-30T19:30:40.185Z,2.27
2023-03-30T19:33:12.804Z,1.93
2023-03-30T19:35:41.401Z,1.80
2023-03-30T19:38:08.598Z,2.40
2023-03-30T19:40:37.876Z,1.63
2023-03-30T19:43:04.761Z,1.80
2023-03-30T19:45:34.605Z,2.07
2023-03-30T19:48:01.396Z,1.93
2023-03-30T19:50:30.133Z,2.03
2023-03-30T19:52:57.771Z,2.47
2023-03-30T19:55:26.263Z,1.70
2023-03-30T19:57:53.181Z,1.77
2023-03-30T20:00:20.761Z,1.90
2023-03-30T20:02:53.040Z,2.13
2023-03-30T20:05:21.484Z,2.13
2023-03-30T20:07:48.776Z,1.90
2023-03-30T20:10:19.256Z,2.70
2023-03-30T20:12:47.019Z,2.50
2023-03-30T20:15:14.515Z,1.57
2023-03-30T20:17:42.129Z,2.00
2023-03-30T20:20:12.655Z,2.67
2023-03-30T20:22:42.414Z,2.20
2023-03-30T20:25:11.885Z,2.00
2023-03-30T20:27:38.694Z,2.00
2023-03-30T20:30:07.525Z,1.73
2023-03-30T20:32:35.501Z,2.60
2023-03-30T20:35:02.723Z,1.83
2023-03-30T20:37:29.685Z,2.17
2023-03-30T20:40:06.498Z,2.20
2023-03-30T20:42:33.612Z,1.80
2023-03-30T20:45:01.318Z,2.50
2023-03-30T20:47:30.455Z,2.23
2023-03-30T20:49:58.434Z,2.07
2023-03-30T20:52:25.882Z,2.10
2023-03-30T20:54:52.990Z,2.23
2023-03-30T20:57:21.170Z,2.23
2023-03-30T20:59:48.759Z,2.70
2023-03-30T21:02:16.589Z,1.93
2023-03-30T21:04:44.594Z,2.33
2023-03-30T21:07:12.371Z,2.57
2023-03-30T21:09:42.681Z,2.43
2023-03-30T21:12:12.018Z,1.80
2023-03-30T21:14:38.880Z,2.60
2023-03-30T21:17:05.799Z,2.50
2023-03-30T21:19:33.133Z,2.40
2023-03-30T21:22:01.162Z,2.00
2023-03-30T21:24:28.389Z,2.23
2023-03-30T21:26:55.166Z,1.70
2023-03-30T21:29:22.678Z,2.20
2023-03-30T21:31:49.960Z,2.00
2023-03-30T21:34:19.824Z,2.23
2023-03-30T21:36:46.862Z,1.97
2023-03-30T21:39:13.972Z,2.40
2023-03-30T21:41:40.804Z,2.33
2023-03-30T21:44:13.361Z,1.93
2023-03-30T21:46:40.422Z,2.00
2023-03-30T21:49:07.271Z,2.27
2023-03-30T21:51:33.988Z,2.07
2023-03-30T21:54:00.799Z,1.80
2023-03-30T21:56:29.977Z,1.97
2023-03-30T21:58:57.525Z,2.43
2023-03-30T22:01:25.161Z,2.20
2023-03-30T22:03:53.450Z,2.30
2023-03-30T22:06:23.329Z,2.10
2023-03-30T22:08:50.655Z,2.37
2023-03-30T22:11:22.758Z,3.33
2023-03-30T22:13:50.638Z,2.03
2023-03-30T22:16:25.914Z,2.10
2023-03-30T22:18:52.738Z,2.13
2023-03-30T22:21:23.725Z,2.10
2023-03-30T22:23:51.290Z,2.10
2023-03-30T22:26:18.034Z,2.37
2023-03-30T22:28:44.992Z,2.07
2023-03-30T22:31:14.025Z,2.00
2023-03-30T22:33:42.169Z,2.37
2023-03-30T22:36:21.042Z,2.27
2023-03-30T22:38:49.544Z,2.83
2023-03-30T22:41:18.675Z,1.90
2023-03-30T22:43:45.540Z,1.73
2023-03-30T22:46:12.649Z,2.30
2023-03-30T22:48:41.705Z,2.17
2023-03-30T22:51:08.764Z,2.27
2023-03-30T22:53:35.833Z,1.70
2023-03-30T22:56:02.798Z,2.00
2023-03-30T22:58:30.112Z,1.63
2023-03-30T23:01:10.648Z,2.07
2023-03-30T23:03:40.807Z,1.87
2023-03-30T23:06:09.217Z,1.83
2023-03-30T23:08:36.511Z,1.47
2023-03-30T23:11:06.419Z,1.77
2023-03-30T23:13:37.844Z,1.77
2023-03-30T23:16:08.925Z,2.40
2023-03-30T23:18:36.273Z,1.90
2023-03-30T23:21:06.798Z,2.00
2023-03-30T23:23:37.824Z,2.00
2023-03-30T23:26:09.182Z,2.17
2023-03-30T23:28:42.152Z,1.70
2023-03-30T23:31:17.772Z,2.07
2023-03-30T23:33:45.425Z,2.27
2023-03-30T23:36:19.292Z,2.27
2023-03-30T23:38:50.018Z,2.23
2023-03-30T23:41:19.181Z,2.53
2023-03-30T23:43:46.627Z,2.30
2023-03-30T23:46:14.386Z,2.43
2023-03-30T23:48:42.074Z,2.00
2023-03-30T23:51:09.273Z,2.20
2023-03-30T23:53:40.157Z,2.40
2023-03-30T23:56:12.881Z,2.47
2023-03-30T23:58:40.944Z,2.57
